createdAt,value
2022-07-29T00:01:44.002Z,1.60
2022-07-29T00:04:11.877Z,1.50
2022-07-29T00:06:39.865Z,1.50
2022-07-29T00:09:07.681Z,1.50
2022-07-29T00:11:35.190Z,1.23
2022-07-29T00:14:03.138Z,1.65
2022-07-29T00:16:30.860Z,1.60
2022-07-29T00:19:02.337Z,1.50
2022-07-29T00:21:30.176Z,1.52
2022-07-29T00:23:57.602Z,1.60
2022-07-29T00:26:25.306Z,1.70
2022-07-29T00:29:02.059Z,1.45
2022-07-29T00:31:40.186Z,1.90
2022-07-29T00:34:30.558Z,1.80
2022-07-29T00:36:57.322Z,1.70
2022-07-29T00:39:25.088Z,1.55
2022-07-29T00:41:54.961Z,1.70
2022-07-29T00:44:22.421Z,1.50
2022-07-29T00:46:50.077Z,1.92
2022-07-29T00:49:19.055Z,2.25
2022-07-29T00:51:46.575Z,1.55
2022-07-29T00:54:14.714Z,1.70
2022-07-29T00:56:42.317Z,1.87
2022-07-29T00:59:09.769Z,1.92
2022-07-29T01:01:37.267Z,1.50
2022-07-29T01:04:04.824Z,1.80
2022-07-29T01:06:34.399Z,2.00
2022-07-29T01:09:02.182Z,1.80
2022-07-29T01:11:29.595Z,1.90
2022-07-29T01:13:57.404Z,1.60
2022-07-29T01:16:27.570Z,1.50
2022-07-29T01:18:58.824Z,1.83
2022-07-29T01:21:36.357Z,1.73
2022-07-29T01:24:20.207Z,1.90
2022-07-29T01:26:48.859Z,2.00
2022-07-29T01:29:20.640Z,2.03
2022-07-29T01:31:59.563Z,2.20
2022-07-29T01:34:31.754Z,2.00
2022-07-29T01:37:04.025Z,2.42
2022-07-29T01:39:33.546Z,2.00
2022-07-29T01:42:03.652Z,1.92
2022-07-29T01:44:36.248Z,2.10
2022-07-29T01:47:07.099Z,2.00
2022-07-29T01:49:37.708Z,1.73
2022-07-29T01:52:07.451Z,1.90
2022-07-29T01:54:37.547Z,1.90
2022-07-29T01:57:06.687Z,1.88
2022-07-29T01:59:38.445Z,2.10
2022-07-29T02:02:06.752Z,1.90
2022-07-29T02:04:35.582Z,2.00
2022-07-29T02:07:05.970Z,1.90
2022-07-29T02:09:35.369Z,1.73
2022-07-29T02:12:04.322Z,2.10
2022-07-29T02:14:35.263Z,2.08
2022-07-29T02:17:04.224Z,1.90
2022-07-29T02:19:33.392Z,2.30
2022-07-29T02:22:01.778Z,1.70
2022-07-29T02:24:30.539Z,1.90
2022-07-29T02:26:58.824Z,1.90
2022-07-29T02:29:27.405Z,1.73
2022-07-29T02:31:55.709Z,1.80
2022-07-29T02:34:25.350Z,1.90
2022-07-29T02:36:53.435Z,2.03
2022-07-29T02:39:21.448Z,2.13
2022-07-29T02:41:49.979Z,2.25
2022-07-29T02:44:18.609Z,2.00
2022-07-29T02:46:49.836Z,2.15
2022-07-29T02:49:18.936Z,1.97
2022-07-29T02:51:51.483Z,1.85
2022-07-29T02:54:24.471Z,2.10
2022-07-29T02:56:54.593Z,2.22
2022-07-29T02:59:23.991Z,2.22
2022-07-29T03:01:51.879Z,2.20
2022-07-29T03:04:21.337Z,2.15
2022-07-29T03:06:50.710Z,2.22
2022-07-29T03:09:18.531Z,2.13
2022-07-29T03:11:49.562Z,2.10
2022-07-29T03:14:19.453Z,2.10
2022-07-29T03:16:47.801Z,2.17
2022-07-29T03:19:15.556Z,2.30
2022-07-29T03:21:43.018Z,2.30
2022-07-29T03:24:11.853Z,2.40
2022-07-29T03:26:39.728Z,2.20
2022-07-29T03:29:07.401Z,2.45
2022-07-29T03:31:35.330Z,2.30
2022-07-29T03:34:02.789Z,2.25
2022-07-29T03:36:30.292Z,2.30
2022-07-29T03:38:57.902Z,2.60
2022-07-29T03:41:27.064Z,2.33
2022-07-29T03:43:54.951Z,2.70
2022-07-29T03:46:24.554Z,2.70
2022-07-29T03:48:54.660Z,2.70
2022-07-29T03:51:33.207Z,2.60
2022-07-29T03:54:06.189Z,2.80
2022-07-29T03:56:40.223Z,2.33
2022-07-29T03:59:08.344Z,2.58
2022-07-29T04:01:36.278Z,2.65
2022-07-29T04:04:04.790Z,2.70
2022-07-29T04:06:39.526Z,2.90
2022-07-29T04:09:07.463Z,2.90
2022-07-29T04:12:01.795Z,3.40
2022-07-29T04:14:27.583Z,3.03
2022-07-29T04:16:54.993Z,2.90
2022-07-29T04:19:22.453Z,3.17
2022-07-29T04:21:49.888Z,3.10
2022-07-29T04:24:18.018Z,3.13
2022-07-29T04:26:47.319Z,3.10
2022-07-29T04:29:15.252Z,3.00
2022-07-29T04:31:43.031Z,2.90
2022-07-29T04:34:11.024Z,2.88
2022-07-29T04:36:38.433Z,2.83
2022-07-29T04:39:05.905Z,3.00
2022-07-29T04:41:33.878Z,3.10
2022-07-29T04:44:07.058Z,2.70
2022-07-29T04:46:35.232Z,3.13
2022-07-29T04:49:02.910Z,3.05
2022-07-29T04:51:30.457Z,2.75
2022-07-29T04:53:58.008Z,3.80
2022-07-29T04:56:25.525Z,3.42
2022-07-29T04:58:53.228Z,3.33
2022-07-29T05:01:23.843Z,3.05
2022-07-29T05:03:52.424Z,3.33
2022-07-29T05:06:21.469Z,3.00
2022-07-29T05:08:48.875Z,3.00
2022-07-29T05:11:21.341Z,3.10
2022-07-29T05:13:52.277Z,3.00
2022-07-29T05:16:19.745Z,3.00
2022-07-29T05:18:48.585Z,2.70
2022-07-29T05:21:16.058Z,2.80
2022-07-29T05:23:43.560Z,2.85
2022-07-29T05:26:10.984Z,2.72
2022-07-29T05:28:38.695Z,2.70
2022-07-29T05:31:06.201Z,2.70
2022-07-29T05:33:36.105Z,2.70
2022-07-29T05:36:07.757Z,2.58
2022-07-29T05:38:36.370Z,2.60
2022-07-29T05:41:03.852Z,2.55
2022-07-29T05:43:31.775Z,2.60
2022-07-29T05:45:59.544Z,2.47
2022-07-29T05:48:27.330Z,2.20
2022-07-29T05:50:57.343Z,2.38
2022-07-29T05:53:26.223Z,2.40
2022-07-29T05:55:53.861Z,2.20
2022-07-29T05:58:21.852Z,2.30
2022-07-29T06:00:49.489Z,2.17
2022-07-29T06:03:17.561Z,2.50
2022-07-29T06:05:45.401Z,2.22
2022-07-29T06:08:13.001Z,2.37
2022-07-29T06:10:42.057Z,2.20
2022-07-29T06:13:09.771Z,2.10
2022-07-29T06:15:37.442Z,2.47
2022-07-29T06:18:04.994Z,2.60
2022-07-29T06:20:33.263Z,2.07
2022-07-29T06:23:01.241Z,2.20
2022-07-29T06:25:30.147Z,2.30
2022-07-29T06:28:02.300Z,2.17
2022-07-29T06:30:30.240Z,2.50
2022-07-29T06:32:58.163Z,2.70
2022-07-29T06:35:39.490Z,2.40
2022-07-29T06:38:30.768Z,2.38
2022-07-29T06:41:04.548Z,3.00
2022-07-29T06:43:34.964Z,2.60
2022-07-29T06:46:03.478Z,2.70
2022-07-29T06:48:31.128Z,2.58
2022-07-29T06:50:58.983Z,2.42
2022-07-29T06:53:26.418Z,2.60
2022-07-29T06:55:53.957Z,2.42
2022-07-29T06:58:21.769Z,2.63
2022-07-29T07:00:50.635Z,2.10
2022-07-29T07:03:18.174Z,2.50
2022-07-29T07:05:45.996Z,2.47
2022-07-29T07:08:14.027Z,2.47
2022-07-29T07:10:41.777Z,2.80
2022-07-29T07:13:09.271Z,2.30
2022-07-29T07:15:39.243Z,2.40
2022-07-29T07:18:08.944Z,2.40
2022-07-29T07:20:36.647Z,2.58
2022-07-29T07:23:04.102Z,2.60
2022-07-29T07:25:31.837Z,2.50
2022-07-29T07:27:59.328Z,2.60
2022-07-29T07:30:26.792Z,2.35
2022-07-29T07:32:54.217Z,2.40
2022-07-29T07:35:23.034Z,2.50
2022-07-29T07:37:50.543Z,2.53
2022-07-29T07:40:18.831Z,2.40
2022-07-29T07:42:46.531Z,2.88
2022-07-29T07:45:16.419Z,2.85
2022-07-29T07:47:44.213Z,2.63
2022-07-29T07:50:18.374Z,2.80
2022-07-29T07:52:51.624Z,2.70
2022-07-29T07:55:19.614Z,2.80
2022-07-29T07:57:47.060Z,2.53
2022-07-29T08:00:15.690Z,2.73
2022-07-29T08:02:44.268Z,2.72
2022-07-29T08:05:13.100Z,2.58
2022-07-29T08:07:40.669Z,2.50
2022-07-29T08:10:10.119Z,2.50
2022-07-29T08:12:37.945Z,2.43
2022-07-29T08:15:07.664Z,2.75
2022-07-29T08:17:35.645Z,2.60
2022-07-29T08:20:03.111Z,2.35
2022-07-29T08:22:30.924Z,2.75
2022-07-29T08:24:58.397Z,2.40
2022-07-29T08:27:43.032Z,2.40
2022-07-29T08:30:11.490Z,2.70
2022-07-29T08:32:55.726Z,2.40
2022-07-29T08:35:24.382Z,2.42
2022-07-29T08:37:52.521Z,2.60
2022-07-29T08:40:20.013Z,2.28
2022-07-29T08:43:01.169Z,2.60
2022-07-29T08:45:30.017Z,2.58
2022-07-29T08:48:00.434Z,2.75
2022-07-29T08:50:28.058Z,2.40
2022-07-29T08:52:59.703Z,2.60
2022-07-29T08:55:27.855Z,2.63
2022-07-29T08:57:57.378Z,2.60
2022-07-29T09:00:27.118Z,2.60
2022-07-29T09:02:59.732Z,2.50
2022-07-29T09:05:28.048Z,3.15
2022-07-29T09:07:55.671Z,2.90
2022-07-29T09:10:23.274Z,3.38
2022-07-29T09:12:50.809Z,3.40
2022-07-29T09:15:19.533Z,3.00
2022-07-29T09:17:49.236Z,3.10
2022-07-29T09:20:18.058Z,2.90
2022-07-29T09:22:48.137Z,2.70
2022-07-29T09:25:15.794Z,3.10
2022-07-29T09:27:43.313Z,2.93
2022-07-29T09:30:12.408Z,3.00
2022-07-29T09:32:54.735Z,2.72
2022-07-29T09:35:25.344Z,2.83
2022-07-29T09:37:53.290Z,2.60
2022-07-29T09:40:21.860Z,2.57
2022-07-29T09:42:49.562Z,2.70
2022-07-29T09:45:28.696Z,2.47
2022-07-29T09:47:58.352Z,2.25
2022-07-29T09:50:36.293Z,2.80
2022-07-29T09:53:03.742Z,2.70
2022-07-29T09:55:31.313Z,2.80
2022-07-29T09:58:17.326Z,2.83
2022-07-29T10:00:45.220Z,2.78
2022-07-29T10:03:12.775Z,2.88
2022-07-29T10:05:43.028Z,2.80
2022-07-29T10:08:10.803Z,2.90
2022-07-29T10:10:39.353Z,3.30
2022-07-29T10:13:11.019Z,2.85
2022-07-29T10:15:45.998Z,3.22
2022-07-29T10:18:14.656Z,3.10
2022-07-29T10:20:43.635Z,2.70
2022-07-29T10:23:11.403Z,2.83
2022-07-29T10:25:38.832Z,2.50
2022-07-29T10:28:07.634Z,2.25
2022-07-29T10:30:35.347Z,2.63
2022-07-29T10:33:17.625Z,2.40
2022-07-29T10:36:02.733Z,2.50
2022-07-29T10:38:45.756Z,2.45
2022-07-29T10:41:32.467Z,2.10
2022-07-29T10:44:05.562Z,2.20
2022-07-29T10:46:36.715Z,2.17
2022-07-29T10:49:08.208Z,2.10
2022-07-29T10:51:55.739Z,2.20
2022-07-29T10:57:19.467Z,2.00
2022-07-29T10:59:49.023Z,1.70
2022-07-29T11:02:43.954Z,2.15
2022-07-29T11:05:12.959Z,1.90
2022-07-29T11:07:46.328Z,2.30
2022-07-29T11:10:31.028Z,2.20
2022-07-29T11:13:00.536Z,2.10
2022-07-29T11:15:28.628Z,2.00
2022-07-29T11:18:05.664Z,2.10
2022-07-29T11:20:37.788Z,2.20
2022-07-29T11:23:19.477Z,1.50
2022-07-29T11:25:50.667Z,2.10
2022-07-29T11:28:25.176Z,2.03
2022-07-29T11:30:53.562Z,2.28
2022-07-29T11:33:54.100Z,2.15
2022-07-29T11:36:18.474Z,1.88
2022-07-29T11:38:45.929Z,2.20
2022-07-29T11:41:27.429Z,1.92
2022-07-29T11:43:57.050Z,1.73
2022-07-29T11:46:43.060Z,1.90
2022-07-29T11:49:11.265Z,1.50
2022-07-29T11:51:48.108Z,1.80
2022-07-29T11:54:18.911Z,1.70
2022-07-29T11:56:55.922Z,1.60
2022-07-29T11:59:33.134Z,1.60
2022-07-29T12:02:32.964Z,1.73
2022-07-29T12:04:51.214Z,1.73
2022-07-29T12:07:20.290Z,1.55
2022-07-29T12:09:51.590Z,1.42
2022-07-29T12:12:19.867Z,1.55
2022-07-29T12:14:48.671Z,1.67
2022-07-29T12:17:30.557Z,1.80
2022-07-29T12:20:00.526Z,1.70
2022-07-29T12:22:30.885Z,1.60
2022-07-29T12:25:30.336Z,1.60
2022-07-29T12:27:59.714Z,1.80
2022-07-29T12:30:39.852Z,1.80
2022-07-29T12:33:19.538Z,1.63
2022-07-29T12:35:58.059Z,1.60
2022-07-29T12:38:31.416Z,1.63
2022-07-29T12:40:59.088Z,1.63
2022-07-29T12:43:26.952Z,1.67
2022-07-29T12:45:56.997Z,1.90
2022-07-29T12:48:34.788Z,1.67
2022-07-29T12:51:02.821Z,1.80
2022-07-29T12:53:30.597Z,1.90
2022-07-29T12:56:00.611Z,2.30
2022-07-29T12:58:29.402Z,1.80
2022-07-29T13:01:17.210Z,1.80
2022-07-29T13:03:57.530Z,1.60
2022-07-29T13:06:32.646Z,2.88
2022-07-29T13:09:00.740Z,2.00
2022-07-29T13:11:32.065Z,2.13
2022-07-29T13:14:05.680Z,2.00
2022-07-29T13:16:35.375Z,2.05
2022-07-29T13:19:10.187Z,1.80
2022-07-29T13:21:38.002Z,1.80
2022-07-29T13:24:05.898Z,2.10
2022-07-29T13:26:33.433Z,2.10
2022-07-29T13:29:01.013Z,2.10
2022-07-29T13:31:28.615Z,2.10
2022-07-29T13:33:57.501Z,1.90
2022-07-29T13:36:25.091Z,1.90
2022-07-29T13:38:52.497Z,1.90
2022-07-29T13:41:19.957Z,1.70
2022-07-29T13:43:47.518Z,1.80
2022-07-29T13:46:17.741Z,2.00
2022-07-29T13:48:45.450Z,2.20
2022-07-29T13:51:18.619Z,1.92
2022-07-29T13:53:46.077Z,1.83
2022-07-29T13:56:13.511Z,2.22
2022-07-29T13:58:42.826Z,1.90
2022-07-29T14:01:10.330Z,1.98
2022-07-29T14:03:41.628Z,1.80
2022-07-29T14:06:14.242Z,1.73
2022-07-29T14:08:43.841Z,1.95
2022-07-29T14:11:11.526Z,2.10
2022-07-29T14:13:38.934Z,2.10
2022-07-29T14:16:07.957Z,2.35
2022-07-29T14:18:35.463Z,2.42
2022-07-29T14:21:02.967Z,1.80
2022-07-29T14:23:30.678Z,1.90
2022-07-29T14:25:59.452Z,1.90
2022-07-29T14:28:29.563Z,1.92
2022-07-29T14:30:57.191Z,2.10
2022-07-29T14:33:24.606Z,2.20
2022-07-29T14:35:52.224Z,2.00
2022-07-29T14:38:19.880Z,2.00
2022-07-29T14:40:48.058Z,2.10
2022-07-29T14:43:19.853Z,2.13
2022-07-29T14:45:49.276Z,1.80
2022-07-29T14:48:16.728Z,2.23
2022-07-29T14:50:45.425Z,2.00
2022-07-29T14:53:13.076Z,1.80
2022-07-29T14:55:41.291Z,1.70
2022-07-29T14:58:13.250Z,1.90
2022-07-29T15:00:44.994Z,1.70
2022-07-29T15:03:12.435Z,1.67
2022-07-29T15:05:50.381Z,1.95
2022-07-29T15:08:17.932Z,1.70
2022-07-29T15:10:45.366Z,1.77
2022-07-29T15:13:12.784Z,1.73
2022-07-29T15:15:40.366Z,1.70
2022-07-29T15:18:10.045Z,2.08
2022-07-29T15:20:37.632Z,1.80
2022-07-29T15:23:05.103Z,2.10
2022-07-29T15:25:33.919Z,1.90
2022-07-29T15:28:03.870Z,1.88
2022-07-29T15:30:34.668Z,1.95
2022-07-29T15:33:02.715Z,2.53
2022-07-29T15:35:31.548Z,1.75
2022-07-29T15:37:59.049Z,1.90
2022-07-29T15:40:26.475Z,2.10
2022-07-29T15:42:53.871Z,1.95
2022-07-29T15:45:21.319Z,1.90
2022-07-29T15:47:48.723Z,1.80
2022-07-29T15:50:16.847Z,1.70
2022-07-29T15:52:45.615Z,1.90
2022-07-29T15:55:13.050Z,1.90
2022-07-29T15:57:41.144Z,1.60
2022-07-29T16:00:12.232Z,1.73
2022-07-29T16:02:40.020Z,1.90
2022-07-29T16:05:09.548Z,1.80
2022-07-29T16:07:38.156Z,1.80
2022-07-29T16:10:07.857Z,1.80
2022-07-29T16:12:35.320Z,1.70
2022-07-29T16:15:07.583Z,1.70
2022-07-29T16:17:37.198Z,1.80
2022-07-29T16:20:05.285Z,1.60
2022-07-29T16:22:32.772Z,1.67
2022-07-29T16:25:00.263Z,2.03
2022-07-29T16:27:35.566Z,2.10
2022-07-29T16:30:05.968Z,2.05
2022-07-29T16:32:33.626Z,1.90
2022-07-29T16:35:02.647Z,2.20
2022-07-29T16:37:33.458Z,1.90
2022-07-29T16:40:04.651Z,2.03
2022-07-29T16:42:47.463Z,2.20
2022-07-29T16:45:15.103Z,2.00
2022-07-29T16:47:42.819Z,1.80
2022-07-29T16:50:10.848Z,2.10
2022-07-29T16:52:39.993Z,2.10
2022-07-29T16:55:08.333Z,2.42
2022-07-29T16:57:37.127Z,1.92
2022-07-29T17:00:05.283Z,2.00
2022-07-29T17:02:32.736Z,2.00
2022-07-29T17:05:00.170Z,2.20
2022-07-29T17:07:30.304Z,2.40
2022-07-29T17:10:03.299Z,2.25
2022-07-29T17:12:31.649Z,2.30
2022-07-29T17:15:00.437Z,2.05
2022-07-29T17:17:38.792Z,2.20
2022-07-29T17:20:17.511Z,2.30
2022-07-29T17:22:45.186Z,2.38
2022-07-29T17:25:20.908Z,2.40
2022-07-29T17:27:49.442Z,2.20
2022-07-29T17:30:18.518Z,2.37
2022-07-29T17:32:45.986Z,2.20
2022-07-29T17:35:33.823Z,2.38
2022-07-29T17:38:01.365Z,2.90
2022-07-29T17:40:28.759Z,2.75
2022-07-29T17:42:56.312Z,2.57
2022-07-29T17:45:25.183Z,2.90
2022-07-29T17:47:54.079Z,2.90
2022-07-29T17:50:24.445Z,2.80
2022-07-29T17:52:51.889Z,2.90
2022-07-29T17:55:19.462Z,2.80
2022-07-29T17:57:46.893Z,3.33
2022-07-29T18:00:16.742Z,2.75
2022-07-29T18:02:45.836Z,2.85
2022-07-29T18:05:13.373Z,2.40
2022-07-29T18:07:40.914Z,2.60
2022-07-29T18:10:08.912Z,3.47
2022-07-29T18:12:36.368Z,3.08
2022-07-29T18:15:03.959Z,3.30
2022-07-29T18:17:48.446Z,3.42
2022-07-29T18:20:20.391Z,3.10
2022-07-29T18:22:51.171Z,2.85
2022-07-29T18:25:18.596Z,2.60
2022-07-29T18:27:49.698Z,2.80
2022-07-29T18:30:17.616Z,2.92
2022-07-29T18:32:59.422Z,3.03
2022-07-29T18:35:33.860Z,3.20
2022-07-29T18:38:03.031Z,3.22
2022-07-29T18:40:31.024Z,3.33
2022-07-29T18:42:58.486Z,3.10
2022-07-29T18:45:29.037Z,3.47
2022-07-29T18:47:56.621Z,3.58
2022-07-29T18:50:29.239Z,3.35
2022-07-29T18:53:01.098Z,3.38
2022-07-29T18:55:28.566Z,3.17
2022-07-29T18:57:58.528Z,3.30
2022-07-29T19:00:27.627Z,2.95
2022-07-29T19:02:55.613Z,3.55
2022-07-29T19:05:24.028Z,3.42
2022-07-29T19:07:51.465Z,3.92
2022-07-29T19:10:20.307Z,3.40
2022-07-29T19:12:47.738Z,3.78
2022-07-29T19:15:19.896Z,3.60
2022-07-29T19:17:48.597Z,3.40
2022-07-29T19:20:18.022Z,3.60
2022-07-29T19:22:45.583Z,3.70
2022-07-29T19:25:13.233Z,3.30
2022-07-29T19:27:43.928Z,3.58
2022-07-29T19:30:11.721Z,3.50
2022-07-29T19:32:39.189Z,3.40
2022-07-29T19:35:26.923Z,3.53
2022-07-29T19:37:58.734Z,3.80
2022-07-29T19:40:27.241Z,3.90
2022-07-29T19:42:56.684Z,3.75
2022-07-29T19:45:25.648Z,3.78
2022-07-29T19:47:56.514Z,3.45
2022-07-29T19:50:26.705Z,3.90
2022-07-29T19:52:54.144Z,4.05
2022-07-29T19:55:21.873Z,3.63
2022-07-29T19:57:49.687Z,4.00
2022-07-29T20:00:20.981Z,4.22
2022-07-29T20:02:48.752Z,3.70
2022-07-29T20:05:18.995Z,3.83
2022-07-29T20:07:47.724Z,4.40
2022-07-29T20:10:15.517Z,3.70
2022-07-29T20:12:43.491Z,3.70
2022-07-29T20:15:16.251Z,3.73
2022-07-29T20:17:45.503Z,3.80
2022-07-29T20:20:13.049Z,4.07
2022-07-29T20:22:40.548Z,4.28
2022-07-29T20:25:10.081Z,4.30
2022-07-29T20:27:40.343Z,4.40
2022-07-29T20:30:08.620Z,4.10
2022-07-29T20:32:36.191Z,4.00
2022-07-29T20:35:08.907Z,3.70
2022-07-29T20:37:52.489Z,4.10
2022-07-29T20:40:29.048Z,3.90
2022-07-29T20:42:56.601Z,3.90
2022-07-29T20:45:24.652Z,3.78
2022-07-29T20:47:52.685Z,3.90
2022-07-29T20:50:23.853Z,3.88
2022-07-29T20:52:52.108Z,3.90
2022-07-29T20:55:19.492Z,4.25
2022-07-29T20:57:47.050Z,4.13
2022-07-29T21:00:14.964Z,4.10
2022-07-29T21:02:44.411Z,4.15
2022-07-29T21:05:11.933Z,4.30
2022-07-29T21:07:40.793Z,4.40
2022-07-29T21:10:08.969Z,4.35
2022-07-29T21:12:36.398Z,4.43
2022-07-29T21:15:06.196Z,4.10
2022-07-29T21:17:35.887Z,5.13
2022-07-29T21:20:03.884Z,4.60
2022-07-29T21:22:33.162Z,4.63
2022-07-29T21:25:02.460Z,4.65
2022-07-29T21:27:47.410Z,4.55
2022-07-29T21:30:14.883Z,4.40
2022-07-29T21:32:42.446Z,4.00
2022-07-29T21:35:22.329Z,4.72
2022-07-29T21:37:57.988Z,4.10
2022-07-29T21:40:26.844Z,4.18
2022-07-29T21:42:54.644Z,4.33
2022-07-29T21:45:22.055Z,4.35
2022-07-29T21:47:49.604Z,4.20
2022-07-29T21:50:17.031Z,4.22
2022-07-29T21:52:44.520Z,4.32
2022-07-29T21:55:12.218Z,4.67
2022-07-29T21:57:41.046Z,4.22
2022-07-29T22:00:11.353Z,5.00
2022-07-29T22:02:38.802Z,4.35
2022-07-29T22:05:06.581Z,4.40
2022-07-29T22:07:55.890Z,4.27
2022-07-29T22:10:21.574Z,4.38
2022-07-29T22:12:52.193Z,4.30
2022-07-29T22:15:19.745Z,4.10
2022-07-29T22:17:47.170Z,4.55
2022-07-29T22:20:15.193Z,4.30
2022-07-29T22:22:42.778Z,4.15
2022-07-29T22:25:11.173Z,4.20
2022-07-29T22:27:38.612Z,4.32
2022-07-29T22:30:08.854Z,4.22
2022-07-29T22:32:36.329Z,4.43
2022-07-29T22:35:03.800Z,4.07
2022-07-29T22:37:31.330Z,3.90
2022-07-29T22:39:58.792Z,3.95
2022-07-29T22:42:26.380Z,4.25
2022-07-29T22:44:53.835Z,4.33
2022-07-29T22:47:46.361Z,4.22
2022-07-29T22:50:10.279Z,4.78
2022-07-29T22:52:37.939Z,4.05
2022-07-29T22:55:05.580Z,4.35
2022-07-29T22:57:33.054Z,4.43
2022-07-29T23:00:01.648Z,4.43
2022-07-29T23:02:30.415Z,4.10
2022-07-29T23:04:57.831Z,4.30
2022-07-29T23:07:25.265Z,4.13
2022-07-29T23:09:52.848Z,4.40
2022-07-29T23:12:20.390Z,3.80
2022-07-29T23:14:47.881Z,4.07
2022-07-29T23:17:17.984Z,4.35
2022-07-29T23:19:46.944Z,4.90
2022-07-29T23:22:14.679Z,4.30
2022-07-29T23:24:42.249Z,4.70
2022-07-29T23:27:09.768Z,4.90
2022-07-29T23:29:37.226Z,4.50
2022-07-29T23:32:04.989Z,4.10
2022-07-29T23:34:32.445Z,3.97
2022-07-29T23:37:01.609Z,4.20
2022-07-29T23:39:29.318Z,4.45
2022-07-29T23:41:56.752Z,4.60
2022-07-29T23:44:24.572Z,4.78
2022-07-29T23:46:52.028Z,4.60
2022-07-29T23:49:19.546Z,4.10
2022-07-29T23:51:47.185Z,4.47
2022-07-29T23:54:15.992Z,4.60
2022-07-29T23:56:43.424Z,4.50
2022-07-29T23:59:13.924Z,4.60
